Language selection

My Weather Profile Weather Topics  | 

East Labrador Sea - southern half: Past 24 Hour Conditions

 

Makkovik Airport

11:00 PM ADT 09 May 2021
Disclaimer

This table is a summary of hourly weather conditions for the past 24 hours.
Please note that these observations might not always be representative of weather conditions over their associated marine area.

Date / Time
(ADT)
Wind(knots) Conditions Visibility(km) Pressure(kPa) Air tempC) Relative humidity(%) Dew pointC) Wind Chill
09 May 2021
23:00 NNE 9 gust 17 N/A N/A 101.2 0 97 -1 -5
22:00 NNE 6 N/A N/A 101.2 -1 97 -1 -4
21:00 NE 7 N/A N/A 101.3 -1 97 -1 -5
20:00 NNE 6 N/A N/A 101.3 -1 97 -1 -4
19:00 NNE 8 N/A N/A 101.3 0 96 -1 -5
18:00 NNE 9 N/A N/A 101.4 0 93 -1 -5
17:00 NE 8 Mostly Cloudy 24 101.4 0 91 -1 *
16:00 NE 7 Mostly Cloudy 24 101.4 1 90 -1 *
15:00 NNE 8 Mostly Cloudy 24 101.5 1 90 -1 *
14:00 NNE 6 Mostly Cloudy 24 101.6 1 92 0 *
13:00 NNE 8 Cloudy 16 101.7 1 91 -1 *
12:00 NNE 8 Cloudy 11 101.8 0 92 -1 *
11:00 NE 8 Cloudy 11 101.8 0 93 -1 *
10:00 NNE 7 Light Snow 4 101.9 0 96 -1 -4
9:00 NNE 7 Light Snow 5 101.9 0 95 -1 -5
8:00 NNE 3 Light Snow 5 102.0 -1 96 -1 -3
7:00 NNE 7 Cloudy 19 102.1 -1 94 -2 -5
6:00 NE 7 Cloudy 24 102.1 0 89 -2 -4
5:00 E 6 N/A N/A 102.1 0 86 -2 *
4:00 ENE 5 N/A N/A 102.1 0 86 -3 -4
3:00 E 7 N/A N/A 102.2 0 84 -3 -5
2:00 E 9 N/A N/A 102.3 0 86 -3 -5
1:00 E 5 N/A N/A 102.4 -1 87 -3 -4
0:00 E 6 N/A N/A 102.4 -1 86 -3 -4
08 May 2021
23:00 ESE 7 N/A N/A 102.5 0 84 -3 -5

Zoom-in to make a selection

Map of Atlantic - Labrador marine weather areas Kangiqsualujjuaq Airport Cape Kakkiviak Cape Kiglapait Cartwright Airport CFB Goose Bay Hopedale Mary's Harbour Nain Airport Makkovik Airport Saglek Tukialik Bay
Legend:
buoy Buoy
land station Land Station

Atlantic - Labrador Area

Another Region

What we are doing

Date modified: